createdAt,value
2022-09-02T00:03:07.012Z,98602.44
2022-09-02T00:08:10.917Z,98601.72
2022-09-02T00:13:17.167Z,98592.66
2022-09-02T00:18:20.189Z,98588.44
2022-09-02T00:23:23.203Z,98589.44
2022-09-02T00:28:31.469Z,98590.78
2022-09-02T00:33:35.495Z,98581.84
2022-09-02T00:38:39.718Z,98569.25
2022-09-02T00:43:46.759Z,98567.56
2022-09-02T00:48:55.556Z,98564.19
2022-09-02T00:53:59.375Z,98571.28
2022-09-02T00:59:03.771Z,98563.34
2022-09-02T01:04:07.266Z,98561.66
2022-09-02T01:09:14.708Z,98564.88
2022-09-02T01:14:19.173Z,98570.41
2022-09-02T01:19:24.996Z,98569.94
2022-09-02T01:24:31.890Z,98562.00
2022-09-02T01:29:34.603Z,98559.31
2022-09-02T01:34:38.125Z,98556.28
2022-09-02T01:39:42.536Z,98560.31
2022-09-02T01:44:46.538Z,98550.91
2022-09-02T01:49:51.803Z,98557.09
2022-09-02T01:54:57.978Z,98556.59
2022-09-02T02:00:01.739Z,98542.91
2022-09-02T02:05:15.882Z,98543.56
2022-09-02T02:10:23.792Z,98547.91
2022-09-02T02:20:28.450Z,98548.66
2022-09-02T02:25:33.911Z,98553.31
2022-09-02T02:30:36.933Z,98551.09
2022-09-02T02:35:42.223Z,98545.31
2022-09-02T02:40:46.970Z,98553.00
2022-09-02T02:45:49.990Z,98557.41
2022-09-02T02:50:54.101Z,98553.75
2022-09-02T02:55:58.913Z,98548.78
2022-09-02T03:01:01.936Z,98543.81
2022-09-02T03:06:05.853Z,98542.59
2022-09-02T03:11:10.013Z,98540.84
2022-09-02T03:16:19.553Z,98539.09
2022-09-02T03:21:22.810Z,98540.88
2022-09-02T03:26:28.065Z,98537.72
2022-09-02T03:31:31.102Z,98535.25
2022-09-02T03:36:39.652Z,98537.16
2022-09-02T03:41:45.763Z,98535.97
2022-09-02T03:46:48.865Z,98535.19
2022-09-02T03:51:51.681Z,98526.06
2022-09-02T03:56:55.853Z,98525.00
2022-09-02T04:02:00.204Z,98527.28
2022-09-02T04:07:03.191Z,98517.31
2022-09-02T04:12:08.507Z,98524.78
2022-09-02T04:17:11.379Z,98526.56
2022-09-02T04:22:14.283Z,98526.00
2022-09-02T04:27:18.477Z,98526.13
2022-09-02T04:32:22.667Z,98529.50
2022-09-02T04:37:27.303Z,98532.34
2022-09-02T04:42:31.997Z,98525.28
2022-09-02T04:47:35.279Z,98534.03
2022-09-02T04:52:39.539Z,98526.28
2022-09-02T04:57:44.091Z,98529.66
2022-09-02T05:02:47.223Z,98528.50
2022-09-02T05:07:51.527Z,98525.56
2022-09-02T05:12:55.983Z,98527.38
2022-09-02T05:17:59.323Z,98522.97
2022-09-02T05:23:02.380Z,98527.44
2022-09-02T05:28:08.778Z,98530.78
2022-09-02T05:33:23.570Z,98534.03
2022-09-02T05:38:26.641Z,98533.56
2022-09-02T05:43:30.793Z,98530.69
2022-09-02T05:48:50.991Z,98533.28
2022-09-02T05:53:54.689Z,98532.72
2022-09-02T05:59:00.802Z,98529.47
2022-09-02T06:04:05.629Z,98529.75
2022-09-02T06:09:11.994Z,98527.81
2022-09-02T06:14:18.819Z,98526.66
2022-09-02T06:19:22.144Z,98529.69
2022-09-02T06:24:28.644Z,98527.25
2022-09-02T06:29:33.541Z,98526.25
2022-09-02T06:34:37.252Z,98521.00
2022-09-02T06:39:43.874Z,98530.34
2022-09-02T06:44:53.777Z,98533.41
2022-09-02T06:49:57.653Z,98528.09
2022-09-02T06:55:01.789Z,98528.50
2022-09-02T07:00:08.753Z,98523.44
2022-09-02T07:05:15.349Z,98516.72
2022-09-02T07:10:19.939Z,98513.53
2022-09-02T07:15:29.403Z,98508.88
2022-09-02T07:20:33.168Z,98511.69
2022-09-02T07:25:39.617Z,98505.72
2022-09-02T07:30:46.028Z,98505.16
2022-09-02T07:35:53.139Z,98513.75
2022-09-02T07:40:57.529Z,98512.81
2022-09-02T07:46:06.451Z,98515.63
2022-09-02T07:51:10.021Z,98504.53
2022-09-02T07:56:15.102Z,98509.47
2022-09-02T08:01:23.493Z,98511.13
2022-09-02T08:06:35.009Z,98506.50
2022-09-02T08:11:38.974Z,98505.31
2022-09-02T08:16:43.118Z,98499.38
2022-09-02T08:21:46.240Z,98498.47
2022-09-02T08:26:50.046Z,98510.56
2022-09-02T08:31:54.386Z,98504.44
2022-09-02T08:36:58.298Z,98501.84
2022-09-02T08:42:08.676Z,98498.81
2022-09-02T08:47:17.034Z,98492.22
2022-09-02T08:52:29.537Z,98496.00
2022-09-02T08:57:32.979Z,98496.91
2022-09-02T09:02:47.654Z,98489.78
2022-09-02T09:08:00.778Z,98490.53
2022-09-02T09:13:19.689Z,98489.03
2022-09-02T09:18:38.834Z,98487.81
2022-09-02T09:23:42.002Z,98484.00
2022-09-02T09:28:47.071Z,98475.25
2022-09-02T09:33:59.788Z,98472.06
2022-09-02T09:39:19.001Z,98460.78
2022-09-02T09:44:40.432Z,98457.81
2022-09-02T09:49:44.546Z,98464.75
2022-09-02T09:54:47.322Z,98451.06
2022-09-02T09:59:55.979Z,98456.41
2022-09-02T10:05:17.758Z,98457.00
2022-09-02T10:10:22.861Z,98436.00
2022-09-02T10:15:34.406Z,98436.41
2022-09-02T10:21:11.574Z,98425.00
2022-09-02T10:31:41.964Z,98415.28
2022-09-02T10:37:06.541Z,98408.75
2022-09-02T10:42:22.447Z,98397.06
2022-09-02T10:47:31.850Z,98392.81
2022-09-02T10:53:09.326Z,98396.75
2022-09-02T10:58:19.079Z,98398.50
2022-09-02T11:03:28.492Z,98388.41
2022-09-02T11:08:40.163Z,98390.38
2022-09-02T11:13:56.587Z,98382.34
2022-09-02T11:19:03.719Z,98372.69
2022-09-02T11:24:12.268Z,98374.50
2022-09-02T11:29:20.083Z,98368.13
2022-09-02T11:34:39.578Z,98364.28
2022-09-02T11:39:54.402Z,98355.25
2022-09-02T11:45:24.053Z,98353.84
2022-09-02T11:50:48.395Z,98350.63
2022-09-02T11:55:56.765Z,98343.72
2022-09-02T12:01:24.929Z,98339.81
2022-09-02T12:06:29.182Z,98340.81
2022-09-02T12:11:54.961Z,98333.13
2022-09-02T12:17:04.146Z,98332.38
2022-09-02T12:22:38.427Z,98328.00
2022-09-02T12:27:42.907Z,98334.31
2022-09-02T12:33:05.067Z,98331.78
2022-09-02T12:38:28.870Z,98332.69
2022-09-02T12:43:38.425Z,98334.78
2022-09-02T12:48:48.953Z,98326.50
2022-09-02T12:53:52.602Z,98322.47
2022-09-02T12:59:02.531Z,98314.19
2022-09-02T13:04:38.688Z,98302.03
2022-09-02T13:10:14.757Z,98295.19
2022-09-02T13:15:28.827Z,98291.56
2022-09-02T13:20:48.730Z,98294.94
2022-09-02T13:26:45.867Z,98275.03
2022-09-02T13:32:05.049Z,98275.00
2022-09-02T13:37:10.510Z,98270.03
2022-09-02T13:42:16.383Z,98260.81
2022-09-02T13:47:22.955Z,98247.88
2022-09-02T13:53:01.108Z,98252.28
2022-09-02T13:57:56.570Z,98248.84
2022-09-02T14:03:04.383Z,98243.56
2022-09-02T14:08:09.510Z,98219.84
2022-09-02T14:13:13.579Z,98221.16
2022-09-02T14:18:19.834Z,98210.22
2022-09-02T14:23:23.235Z,98202.66
2022-09-02T14:28:28.622Z,98192.03
2022-09-02T14:33:44.390Z,98193.47
2022-09-02T14:38:55.673Z,98187.56
2022-09-02T14:44:00.673Z,98192.56
2022-09-02T14:49:07.076Z,98191.59
2022-09-02T14:54:10.002Z,98182.41
2022-09-02T14:59:12.737Z,98175.75
2022-09-02T15:04:17.155Z,98173.16
2022-09-02T15:09:20.263Z,98170.03
2022-09-02T15:14:23.187Z,98168.78
2022-09-02T15:19:27.363Z,98172.59
2022-09-02T15:24:30.087Z,98165.84
2022-09-02T15:29:32.888Z,98159.63
2022-09-02T15:34:37.077Z,98155.03
2022-09-02T15:39:39.924Z,98161.38
2022-09-02T15:44:42.813Z,98158.31
2022-09-02T15:49:47.266Z,98152.84
2022-09-02T15:54:50.065Z,98153.88
2022-09-02T15:59:52.834Z,98160.28
2022-09-02T16:04:56.927Z,98153.25
2022-09-02T16:10:03.304Z,98158.97
2022-09-02T16:15:07.780Z,98154.50
2022-09-02T16:20:12.496Z,98149.09
2022-09-02T16:25:15.534Z,98133.84
2022-09-02T16:30:18.743Z,98134.69
2022-09-02T16:35:22.920Z,98137.00
2022-09-02T16:40:25.720Z,98125.72
2022-09-02T16:45:28.477Z,98133.50
2022-09-02T16:50:32.635Z,98125.19
2022-09-02T16:55:37.696Z,98136.06
2022-09-02T17:00:42.519Z,98124.88
2022-09-02T17:05:48.647Z,98119.91
2022-09-02T17:10:51.573Z,98124.88
2022-09-02T17:15:54.358Z,98121.75
2022-09-02T17:21:14.293Z,98114.22
2022-09-02T17:26:17.726Z,98126.38
2022-09-02T17:31:23.626Z,98122.38
2022-09-02T17:36:29.812Z,98130.22
2022-09-02T17:41:50.198Z,98125.25
2022-09-02T17:46:53.742Z,98130.81
2022-09-02T17:52:00.046Z,98124.38
2022-09-02T17:57:32.698Z,98121.28
2022-09-02T18:03:10.865Z,98119.84
2022-09-02T18:08:28.750Z,98123.78
2022-09-02T18:13:40.017Z,98120.66
2022-09-02T18:18:52.059Z,98119.41
2022-09-02T18:24:05.289Z,98126.28
2022-09-02T18:29:16.127Z,98131.66
2022-09-02T18:34:44.796Z,98131.75
2022-09-02T18:40:03.941Z,98138.16
2022-09-02T18:45:17.258Z,98139.75
2022-09-02T18:55:55.240Z,98141.53
2022-09-02T19:01:01.465Z,98145.84
2022-09-02T19:06:07.642Z,98146.16
2022-09-02T19:11:15.090Z,98148.47
2022-09-02T19:16:21.048Z,98148.06
2022-09-02T19:21:29.198Z,98149.28
2022-09-02T19:26:34.046Z,98147.88
2022-09-02T19:31:42.976Z,98144.09
2022-09-02T19:36:48.844Z,98145.16
2022-09-02T19:41:53.945Z,98150.16
2022-09-02T19:48:02.599Z,98147.41
2022-09-02T19:52:21.026Z,98148.63
2022-09-02T19:57:25.167Z,98146.94
2022-09-02T20:02:27.926Z,98153.53
2022-09-02T20:07:31.383Z,98152.97
2022-09-02T20:12:36.739Z,98149.47
2022-09-02T20:17:39.573Z,98150.72
2022-09-02T20:22:42.420Z,98154.00
2022-09-02T20:28:04.173Z,98147.50
2022-09-02T20:33:17.148Z,98139.16
2022-09-02T20:38:41.341Z,98147.84
2022-09-02T20:44:03.521Z,98146.06
2022-09-02T20:49:22.681Z,98150.44
2022-09-02T20:54:38.838Z,98151.88
2022-09-02T20:59:54.285Z,98157.47
2022-09-02T21:05:03.972Z,98158.50
2022-09-02T21:10:12.509Z,98158.53
2022-09-02T21:15:26.718Z,98162.72
2022-09-02T21:20:40.636Z,98160.59
2022-09-02T21:25:52.155Z,98158.09
2022-09-02T21:31:02.893Z,98148.75
2022-09-02T21:36:06.536Z,98153.47
2022-09-02T21:41:24.613Z,98152.66
2022-09-02T21:46:39.473Z,98152.69
2022-09-02T21:51:49.201Z,98154.75
2022-09-02T21:57:03.032Z,98150.56
2022-09-02T22:02:12.243Z,98151.91
2022-09-02T22:07:20.005Z,98146.22
2022-09-02T22:12:22.947Z,98146.88
2022-09-02T22:17:36.238Z,98143.00
2022-09-02T22:22:44.740Z,98130.56
2022-09-02T22:27:54.283Z,98134.03
2022-09-02T22:33:07.617Z,98133.00
2022-09-02T22:38:21.839Z,98135.31
2022-09-02T22:43:31.621Z,98129.28
2022-09-02T22:49:05.689Z,98122.72
2022-09-02T22:54:08.382Z,98118.72
2022-09-02T22:59:36.990Z,98120.88
2022-09-02T23:05:03.711Z,98121.38
2022-09-02T23:10:26.927Z,98113.63
2022-09-02T23:15:37.676Z,98119.31
2022-09-02T23:20:52.389Z,98117.63
2022-09-02T23:26:09.706Z,98121.84
2022-09-02T23:31:21.909Z,98113.94
2022-09-02T23:36:37.116Z,98118.25
2022-09-02T23:41:40.561Z,98116.56
2022-09-02T23:46:57.919Z,98121.59
2022-09-02T23:52:09.669Z,98111.38
2022-09-02T23:57:27.243Z,98107.84
